Geddes, South Dakota
Current Conditions -  °F | °C
As of 5:53 AM on Monday 26 Jan 2015 (Local Time) from KMHE Reporting Station
Clear Clear  
Wind Chill: 29°   Ceiling: Unl
Heat Index: 37°   Visibility: 10mi
Dew Point: 32°   Wind: 12mph
Humidity: 82%   Direction: 280°W
Pressure: 29.84"   Gusts: NA
Location:  43.25°N, 98.7°W
Report Text: KMHE 261153Z AUTO 28010KT 10SM CLR 03/00 A2984 RMK AO2 SLP115 T00280000 10033 20006 53003
Loading
Personal Weather Stations






























Interactive Weather Map New forecast layout! Learn more

10-Day Weather Forecast

Advertisements
Track Severe Weather on mobile